sensor_id;sensor_type;location;lat;lon;timestamp;P1;durP1;ratioP1;P2;durP2;ratioP2
1703;SDS011;849;48.780;9.216;2023-01-19T00:01:30;45.17;;;2.50;;
1703;SDS011;849;48.780;9.216;2023-01-19T00:03:56;45.30;;;2.50;;
1703;SDS011;849;48.780;9.216;2023-01-19T00:06:22;45.10;;;2.50;;
1703;SDS011;849;48.780;9.216;2023-01-19T00:08:47;45.10;;;2.40;;
1703;SDS011;849;48.780;9.216;2023-01-19T00:11:16;45.10;;;2.50;;
1703;SDS011;849;48.780;9.216;2023-01-19T00:13:43;45.03;;;2.50;;
1703;SDS011;849;48.780;9.216;2023-01-19T00:16:15;45.27;;;2.40;;
1703;SDS011;849;48.780;9.216;2023-01-19T00:18:42;45.23;;;2.40;;
1703;SDS011;849;48.780;9.216;2023-01-19T00:21:08;45.10;;;2.27;;
1703;SDS011;849;48.780;9.216;2023-01-19T00:23:34;45.17;;;2.40;;
1703;SDS011;849;48.780;9.216;2023-01-19T00:26:00;44.90;;;2.40;;
1703;SDS011;849;48.780;9.216;2023-01-19T00:28:25;45.30;;;2.50;;
1703;SDS011;849;48.780;9.216;2023-01-19T00:30:51;45.07;;;2.40;;
1703;SDS011;849;48.780;9.216;2023-01-19T00:33:16;45.17;;;2.40;;
1703;SDS011;849;48.780;9.216;2023-01-19T00:35:42;45.20;;;2.50;;
1703;SDS011;849;48.780;9.216;2023-01-19T00:38:09;45.20;;;2.40;;
1703;SDS011;849;48.780;9.216;2023-01-19T00:40:35;45.07;;;2.60;;
1703;SDS011;849;48.780;9.216;2023-01-19T00:43:01;45.23;;;2.50;;
1703;SDS011;849;48.780;9.216;2023-01-19T00:45:28;45.20;;;2.43;;
1703;SDS011;849;48.780;9.216;2023-01-19T00:47:54;45.27;;;2.50;;
1703;SDS011;849;48.780;9.216;2023-01-19T00:50:25;45.20;;;2.50;;
1703;SDS011;849;48.780;9.216;2023-01-19T00:52:53;45.30;;;2.40;;
1703;SDS011;849;48.780;9.216;2023-01-19T00:55:19;45.20;;;2.40;;
1703;SDS011;849;48.780;9.216;2023-01-19T00:57:45;45.17;;;2.50;;
1703;SDS011;849;48.780;9.216;2023-01-19T01:00:12;45.17;;;2.30;;
1703;SDS011;849;48.780;9.216;2023-01-19T01:02:42;45.07;;;2.50;;
1703;SDS011;849;48.780;9.216;2023-01-19T01:05:09;45.10;;;2.73;;
1703;SDS011;849;48.780;9.216;2023-01-19T01:07:36;45.27;;;2.70;;
1703;SDS011;849;48.780;9.216;2023-01-19T01:10:26;45.00;;;2.43;;
1703;SDS011;849;48.780;9.216;2023-01-19T01:12:52;45.07;;;2.53;;
1703;SDS011;849;48.780;9.216;2023-01-19T01:15:18;45.07;;;2.50;;
1703;SDS011;849;48.780;9.216;2023-01-19T01:17:46;45.13;;;2.43;;
1703;SDS011;849;48.780;9.216;2023-01-19T01:20:16;45.00;;;2.53;;
1703;SDS011;849;48.780;9.216;2023-01-19T01:22:47;45.00;;;2.50;;
1703;SDS011;849;48.780;9.216;2023-01-19T01:25:14;45.10;;;2.57;;
1703;SDS011;849;48.780;9.216;2023-01-19T01:27:42;45.27;;;2.70;;
1703;SDS011;849;48.780;9.216;2023-01-19T01:30:08;45.00;;;2.40;;
1703;SDS011;849;48.780;9.216;2023-01-19T01:32:36;45.40;;;2.50;;
1703;SDS011;849;48.780;9.216;2023-01-19T01:35:02;45.00;;;2.50;;
1703;SDS011;849;48.780;9.216;2023-01-19T01:37:28;45.10;;;2.30;;
1703;SDS011;849;48.780;9.216;2023-01-19T01:39:54;45.17;;;2.40;;
1703;SDS011;849;48.780;9.216;2023-01-19T01:42:23;45.10;;;2.40;;
1703;SDS011;849;48.780;9.216;2023-01-19T01:44:55;45.10;;;2.40;;
1703;SDS011;849;48.780;9.216;2023-01-19T01:47:36;45.20;;;2.50;;
1703;SDS011;849;48.780;9.216;2023-01-19T01:52:44;45.00;;;2.40;;
1703;SDS011;849;48.780;9.216;2023-01-19T01:55:16;45.23;;;2.30;;
1703;SDS011;849;48.780;9.216;2023-01-19T01:57:45;45.00;;;2.50;;
1703;SDS011;849;48.780;9.216;2023-01-19T02:00:14;45.10;;;2.47;;
1703;SDS011;849;48.780;9.216;2023-01-19T02:02:40;45.17;;;2.50;;
1703;SDS011;849;48.780;9.216;2023-01-19T02:05:23;45.27;;;2.47;;
1703;SDS011;849;48.780;9.216;2023-01-19T02:08:02;45.23;;;2.50;;
1703;SDS011;849;48.780;9.216;2023-01-19T02:10:51;45.20;;;2.60;;
1703;SDS011;849;48.780;9.216;2023-01-19T02:13:38;45.17;;;2.50;;
1703;SDS011;849;48.780;9.216;2023-01-19T02:16:08;45.03;;;2.60;;
1703;SDS011;849;48.780;9.216;2023-01-19T02:18:34;45.10;;;2.70;;
1703;SDS011;849;48.780;9.216;2023-01-19T02:21:07;45.10;;;2.50;;
1703;SDS011;849;48.780;9.216;2023-01-19T02:23:46;45.00;;;2.70;;
1703;SDS011;849;48.780;9.216;2023-01-19T02:26:28;45.17;;;2.50;;
1703;SDS011;849;48.780;9.216;2023-01-19T02:29:09;45.07;;;2.60;;
1703;SDS011;849;48.780;9.216;2023-01-19T02:31:37;45.10;;;2.60;;
1703;SDS011;849;48.780;9.216;2023-01-19T02:34:04;45.10;;;2.50;;
1703;SDS011;849;48.780;9.216;2023-01-19T02:36:40;45.07;;;2.43;;
1703;SDS011;849;48.780;9.216;2023-01-19T02:39:16;45.10;;;2.53;;
1703;SDS011;849;48.780;9.216;2023-01-19T02:41:50;45.10;;;2.60;;
1703;SDS011;849;48.780;9.216;2023-01-19T02:44:19;44.90;;;2.50;;
1703;SDS011;849;48.780;9.216;2023-01-19T02:46:47;45.07;;;2.60;;
1703;SDS011;849;48.780;9.216;2023-01-19T02:49:13;45.20;;;2.40;;
1703;SDS011;849;48.780;9.216;2023-01-19T02:51:38;45.07;;;2.43;;
1703;SDS011;849;48.780;9.216;2023-01-19T02:54:17;45.33;;;2.50;;
1703;SDS011;849;48.780;9.216;2023-01-19T02:57:03;45.33;;;2.40;;
1703;SDS011;849;48.780;9.216;2023-01-19T03:03:00;45.10;;;2.30;;
1703;SDS011;849;48.780;9.216;2023-01-19T03:05:54;45.10;;;2.50;;
1703;SDS011;849;48.780;9.216;2023-01-19T03:16:11;45.07;;;2.30;;
1703;SDS011;849;48.780;9.216;2023-01-19T03:18:43;45.20;;;2.40;;
1703;SDS011;849;48.780;9.216;2023-01-19T03:21:12;45.27;;;2.43;;
1703;SDS011;849;48.780;9.216;2023-01-19T03:23:40;45.20;;;2.40;;
1703;SDS011;849;48.780;9.216;2023-01-19T03:26:09;45.10;;;2.40;;
1703;SDS011;849;48.780;9.216;2023-01-19T03:28:39;45.30;;;2.40;;
1703;SDS011;849;48.780;9.216;2023-01-19T03:31:14;45.20;;;2.40;;
1703;SDS011;849;48.780;9.216;2023-01-19T03:33:48;45.30;;;2.47;;
1703;SDS011;849;48.780;9.216;2023-01-19T03:36:25;45.20;;;2.50;;
1703;SDS011;849;48.780;9.216;2023-01-19T03:38:56;45.20;;;2.60;;
1703;SDS011;849;48.780;9.216;2023-01-19T03:41:24;45.37;;;2.63;;
1703;SDS011;849;48.780;9.216;2023-01-19T03:43:52;45.10;;;2.50;;
1703;SDS011;849;48.780;9.216;2023-01-19T03:46:21;45.30;;;2.53;;
1703;SDS011;849;48.780;9.216;2023-01-19T03:48:48;45.30;;;2.57;;
1703;SDS011;849;48.780;9.216;2023-01-19T03:51:15;45.20;;;2.57;;
1703;SDS011;849;48.780;9.216;2023-01-19T03:53:41;45.10;;;2.53;;
1703;SDS011;849;48.780;9.216;2023-01-19T03:56:10;45.20;;;2.53;;
1703;SDS011;849;48.780;9.216;2023-01-19T03:58:42;45.37;;;2.60;;
1703;SDS011;849;48.780;9.216;2023-01-19T04:01:08;45.20;;;3.00;;
1703;SDS011;849;48.780;9.216;2023-01-19T04:03:34;45.20;;;2.60;;
1703;SDS011;849;48.780;9.216;2023-01-19T04:06:00;45.20;;;2.47;;
1703;SDS011;849;48.780;9.216;2023-01-19T04:08:26;45.40;;;2.57;;
1703;SDS011;849;48.780;9.216;2023-01-19T04:10:51;45.40;;;2.73;;
1703;SDS011;849;48.780;9.216;2023-01-19T04:13:17;45.37;;;2.50;;
1703;SDS011;849;48.780;9.216;2023-01-19T04:15:43;45.20;;;2.57;;
1703;SDS011;849;48.780;9.216;2023-01-19T04:18:08;45.27;;;2.30;;
1703;SDS011;849;48.780;9.216;2023-01-19T04:20:34;45.20;;;2.40;;
1703;SDS011;849;48.780;9.216;2023-01-19T04:23:00;45.30;;;2.40;;
1703;SDS011;849;48.780;9.216;2023-01-19T04:25:26;45.30;;;2.53;;
1703;SDS011;849;48.780;9.216;2023-01-19T04:27:52;45.37;;;2.43;;
1703;SDS011;849;48.780;9.216;2023-01-19T04:30:19;45.30;;;2.57;;
1703;SDS011;849;48.780;9.216;2023-01-19T04:32:45;45.20;;;2.40;;
1703;SDS011;849;48.780;9.216;2023-01-19T04:35:10;45.30;;;2.40;;
1703;SDS011;849;48.780;9.216;2023-01-19T04:37:36;45.13;;;2.47;;
1703;SDS011;849;48.780;9.216;2023-01-19T04:40:02;45.30;;;2.60;;
1703;SDS011;849;48.780;9.216;2023-01-19T04:42:28;45.30;;;2.30;;
1703;SDS011;849;48.780;9.216;2023-01-19T04:44:53;45.20;;;2.47;;
1703;SDS011;849;48.780;9.216;2023-01-19T04:47:19;45.30;;;2.50;;
1703;SDS011;849;48.780;9.216;2023-01-19T04:49:45;45.47;;;2.50;;
1703;SDS011;849;48.780;9.216;2023-01-19T04:52:10;45.30;;;2.50;;
1703;SDS011;849;48.780;9.216;2023-01-19T04:54:36;45.20;;;2.50;;
1703;SDS011;849;48.780;9.216;2023-01-19T04:57:02;45.30;;;2.50;;
1703;SDS011;849;48.780;9.216;2023-01-19T04:59:27;45.30;;;2.50;;
1703;SDS011;849;48.780;9.216;2023-01-19T05:01:53;45.30;;;2.50;;
1703;SDS011;849;48.780;9.216;2023-01-19T05:04:20;45.30;;;2.47;;
1703;SDS011;849;48.780;9.216;2023-01-19T05:06:46;45.40;;;2.73;;
1703;SDS011;849;48.780;9.216;2023-01-19T05:09:12;45.37;;;2.67;;
1703;SDS011;849;48.780;9.216;2023-01-19T05:11:39;45.33;;;2.70;;
1703;SDS011;849;48.780;9.216;2023-01-19T05:14:05;45.30;;;2.60;;
1703;SDS011;849;48.780;9.216;2023-01-19T05:16:31;45.30;;;2.80;;
1703;SDS011;849;48.780;9.216;2023-01-19T05:18:58;45.10;;;2.60;;
1703;SDS011;849;48.780;9.216;2023-01-19T05:21:24;45.20;;;2.60;;
1703;SDS011;849;48.780;9.216;2023-01-19T05:23:50;45.40;;;2.70;;
1703;SDS011;849;48.780;9.216;2023-01-19T05:26:15;45.20;;;2.60;;
1703;SDS011;849;48.780;9.216;2023-01-19T05:28:41;45.43;;;2.50;;
1703;SDS011;849;48.780;9.216;2023-01-19T05:31:07;45.27;;;2.70;;
1703;SDS011;849;48.780;9.216;2023-01-19T05:33:32;45.40;;;2.60;;
1703;SDS011;849;48.780;9.216;2023-01-19T05:35:58;45.20;;;2.50;;
1703;SDS011;849;48.780;9.216;2023-01-19T05:38:24;45.50;;;2.80;;
1703;SDS011;849;48.780;9.216;2023-01-19T05:40:54;45.33;;;2.60;;
1703;SDS011;849;48.780;9.216;2023-01-19T05:43:21;45.30;;;2.60;;
1703;SDS011;849;48.780;9.216;2023-01-19T05:45:49;45.20;;;2.57;;
1703;SDS011;849;48.780;9.216;2023-01-19T05:48:15;45.20;;;2.50;;
1703;SDS011;849;48.780;9.216;2023-01-19T05:50:41;45.27;;;2.70;;
1703;SDS011;849;48.780;9.216;2023-01-19T05:53:07;45.10;;;2.53;;
1703;SDS011;849;48.780;9.216;2023-01-19T05:55:33;45.30;;;2.60;;
1703;SDS011;849;48.780;9.216;2023-01-19T05:57:59;45.30;;;2.50;;
1703;SDS011;849;48.780;9.216;2023-01-19T06:00:25;45.30;;;2.77;;
1703;SDS011;849;48.780;9.216;2023-01-19T06:02:51;45.40;;;2.60;;
1703;SDS011;849;48.780;9.216;2023-01-19T06:05:17;45.37;;;2.70;;
1703;SDS011;849;48.780;9.216;2023-01-19T06:07:43;45.37;;;2.50;;
1703;SDS011;849;48.780;9.216;2023-01-19T06:10:09;45.20;;;2.53;;
1703;SDS011;849;48.780;9.216;2023-01-19T06:12:35;45.20;;;2.53;;
1703;SDS011;849;48.780;9.216;2023-01-19T06:15:05;45.37;;;2.53;;
1703;SDS011;849;48.780;9.216;2023-01-19T06:17:31;45.10;;;2.40;;
1703;SDS011;849;48.780;9.216;2023-01-19T06:19:57;45.10;;;2.53;;
1703;SDS011;849;48.780;9.216;2023-01-19T06:22:23;45.30;;;2.40;;
1703;SDS011;849;48.780;9.216;2023-01-19T06:24:48;45.30;;;2.40;;
1703;SDS011;849;48.780;9.216;2023-01-19T06:27:14;45.30;;;2.60;;
1703;SDS011;849;48.780;9.216;2023-01-19T06:29:40;45.10;;;2.27;;
1703;SDS011;849;48.780;9.216;2023-01-19T06:32:05;45.27;;;2.17;;
1703;SDS011;849;48.780;9.216;2023-01-19T06:34:31;45.27;;;2.50;;
1703;SDS011;849;48.780;9.216;2023-01-19T06:36:57;45.10;;;2.30;;
1703;SDS011;849;48.780;9.216;2023-01-19T06:39:23;45.10;;;2.50;;
1703;SDS011;849;48.780;9.216;2023-01-19T06:41:48;45.00;;;2.20;;
1703;SDS011;849;48.780;9.216;2023-01-19T06:44:14;44.97;;;2.20;;
1703;SDS011;849;48.780;9.216;2023-01-19T06:46:40;45.07;;;2.30;;
1703;SDS011;849;48.780;9.216;2023-01-19T06:49:06;44.83;;;2.50;;
1703;SDS011;849;48.780;9.216;2023-01-19T06:51:32;44.97;;;2.63;;
1703;SDS011;849;48.780;9.216;2023-01-19T06:53:58;45.10;;;2.40;;
1703;SDS011;849;48.780;9.216;2023-01-19T06:56:23;45.10;;;2.60;;
1703;SDS011;849;48.780;9.216;2023-01-19T06:58:49;44.97;;;2.40;;
1703;SDS011;849;48.780;9.216;2023-01-19T07:01:17;44.87;;;2.37;;
1703;SDS011;849;48.780;9.216;2023-01-19T07:03:42;45.10;;;2.50;;
1703;SDS011;849;48.780;9.216;2023-01-19T07:06:08;44.90;;;2.60;;
1703;SDS011;849;48.780;9.216;2023-01-19T07:08:34;45.20;;;2.67;;
1703;SDS011;849;48.780;9.216;2023-01-19T07:11:04;48.20;;;2.80;;
1703;SDS011;849;48.780;9.216;2023-01-19T07:13:32;44.97;;;2.37;;
1703;SDS011;849;48.780;9.216;2023-01-19T07:15:58;45.10;;;2.47;;
1703;SDS011;849;48.780;9.216;2023-01-19T07:18:31;45.10;;;2.60;;
1703;SDS011;849;48.780;9.216;2023-01-19T07:20:57;45.07;;;2.40;;
1703;SDS011;849;48.780;9.216;2023-01-19T07:23:22;45.00;;;2.40;;
1703;SDS011;849;48.780;9.216;2023-01-19T07:25:48;44.90;;;2.47;;
1703;SDS011;849;48.780;9.216;2023-01-19T07:28:14;45.00;;;2.50;;
1703;SDS011;849;48.780;9.216;2023-01-19T07:30:41;45.13;;;2.50;;
1703;SDS011;849;48.780;9.216;2023-01-19T07:33:07;45.00;;;2.40;;
1703;SDS011;849;48.780;9.216;2023-01-19T07:35:33;44.80;;;2.33;;
1703;SDS011;849;48.780;9.216;2023-01-19T07:37:58;45.17;;;2.40;;
1703;SDS011;849;48.780;9.216;2023-01-19T07:40:24;45.20;;;2.40;;
1703;SDS011;849;48.780;9.216;2023-01-19T07:42:50;44.90;;;2.50;;
1703;SDS011;849;48.780;9.216;2023-01-19T07:45:16;44.80;;;2.67;;
1703;SDS011;849;48.780;9.216;2023-01-19T07:47:44;45.03;;;2.50;;
1703;SDS011;849;48.780;9.216;2023-01-19T07:50:13;45.10;;;2.50;;
1703;SDS011;849;48.780;9.216;2023-01-19T07:52:40;45.00;;;2.50;;
1703;SDS011;849;48.780;9.216;2023-01-19T07:55:06;45.13;;;2.70;;
1703;SDS011;849;48.780;9.216;2023-01-19T07:57:33;45.17;;;2.37;;
1703;SDS011;849;48.780;9.216;2023-01-19T07:59:59;45.00;;;2.60;;
1703;SDS011;849;48.780;9.216;2023-01-19T08:02:25;45.07;;;2.50;;
1703;SDS011;849;48.780;9.216;2023-01-19T08:04:51;45.20;;;2.80;;
1703;SDS011;849;48.780;9.216;2023-01-19T08:07:16;45.07;;;2.40;;
1703;SDS011;849;48.780;9.216;2023-01-19T08:09:42;45.17;;;2.50;;
1703;SDS011;849;48.780;9.216;2023-01-19T08:12:08;45.20;;;2.40;;
1703;SDS011;849;48.780;9.216;2023-01-19T08:14:33;45.10;;;2.53;;
1703;SDS011;849;48.780;9.216;2023-01-19T08:16:59;45.13;;;2.33;;
1703;SDS011;849;48.780;9.216;2023-01-19T08:19:25;45.07;;;2.30;;
1703;SDS011;849;48.780;9.216;2023-01-19T08:21:51;44.97;;;2.17;;
1703;SDS011;849;48.780;9.216;2023-01-19T08:24:18;45.27;;;2.37;;
1703;SDS011;849;48.780;9.216;2023-01-19T08:26:45;45.10;;;2.23;;
1703;SDS011;849;48.780;9.216;2023-01-19T08:29:11;45.00;;;2.27;;
1703;SDS011;849;48.780;9.216;2023-01-19T08:31:37;45.10;;;2.30;;
1703;SDS011;849;48.780;9.216;2023-01-19T08:34:03;45.00;;;2.50;;
1703;SDS011;849;48.780;9.216;2023-01-19T08:36:29;45.10;;;2.30;;
1703;SDS011;849;48.780;9.216;2023-01-19T08:38:55;45.10;;;2.30;;
1703;SDS011;849;48.780;9.216;2023-01-19T08:41:21;45.00;;;2.30;;
1703;SDS011;849;48.780;9.216;2023-01-19T08:43:46;45.07;;;2.30;;
1703;SDS011;849;48.780;9.216;2023-01-19T08:46:12;45.03;;;2.30;;
1703;SDS011;849;48.780;9.216;2023-01-19T08:48:44;45.00;;;2.30;;
1703;SDS011;849;48.780;9.216;2023-01-19T08:51:12;45.17;;;2.30;;
1703;SDS011;849;48.780;9.216;2023-01-19T08:53:39;45.07;;;2.30;;
1703;SDS011;849;48.780;9.216;2023-01-19T08:56:05;45.00;;;2.77;;
1703;SDS011;849;48.780;9.216;2023-01-19T08:58:36;45.17;;;2.70;;
1703;SDS011;849;48.780;9.216;2023-01-19T09:01:03;45.10;;;2.60;;
1703;SDS011;849;48.780;9.216;2023-01-19T09:03:30;45.10;;;2.50;;
1703;SDS011;849;48.780;9.216;2023-01-19T09:05:55;45.07;;;2.43;;
1703;SDS011;849;48.780;9.216;2023-01-19T09:08:21;45.00;;;2.50;;
1703;SDS011;849;48.780;9.216;2023-01-19T09:10:48;45.20;;;2.60;;
1703;SDS011;849;48.780;9.216;2023-01-19T09:13:15;45.07;;;2.40;;
1703;SDS011;849;48.780;9.216;2023-01-19T09:15:42;45.00;;;2.60;;
1703;SDS011;849;48.780;9.216;2023-01-19T09:18:13;45.07;;;2.50;;
1703;SDS011;849;48.780;9.216;2023-01-19T09:20:44;44.97;;;2.50;;
1703;SDS011;849;48.780;9.216;2023-01-19T09:23:12;45.07;;;2.60;;
1703;SDS011;849;48.780;9.216;2023-01-19T09:25:41;45.00;;;2.53;;
1703;SDS011;849;48.780;9.216;2023-01-19T09:28:08;44.87;;;2.40;;
1703;SDS011;849;48.780;9.216;2023-01-19T09:30:36;45.13;;;2.47;;
1703;SDS011;849;48.780;9.216;2023-01-19T09:33:07;44.80;;;2.40;;
1703;SDS011;849;48.780;9.216;2023-01-19T09:35:35;45.00;;;2.30;;
1703;SDS011;849;48.780;9.216;2023-01-19T09:38:01;45.20;;;2.40;;
1703;SDS011;849;48.780;9.216;2023-01-19T09:40:27;44.90;;;2.30;;
1703;SDS011;849;48.780;9.216;2023-01-19T09:43:00;44.90;;;2.30;;
1703;SDS011;849;48.780;9.216;2023-01-19T09:45:59;45.00;;;2.30;;
1703;SDS011;849;48.780;9.216;2023-01-19T09:51:12;45.20;;;2.53;;
1703;SDS011;849;48.780;9.216;2023-01-19T09:56:30;45.10;;;2.33;;
1703;SDS011;849;48.780;9.216;2023-01-19T09:58:56;45.10;;;2.20;;
1703;SDS011;849;48.780;9.216;2023-01-19T10:06:49;45.10;;;2.30;;
1703;SDS011;849;48.780;9.216;2023-01-19T10:09:22;45.20;;;2.33;;
1703;SDS011;849;48.780;9.216;2023-01-19T10:11:59;45.10;;;2.23;;
1703;SDS011;849;48.780;9.216;2023-01-19T10:14:31;45.00;;;2.40;;
1703;SDS011;849;48.780;9.216;2023-01-19T10:17:08;45.10;;;2.40;;
1703;SDS011;849;48.780;9.216;2023-01-19T10:19:56;44.97;;;2.40;;
1703;SDS011;849;48.780;9.216;2023-01-19T10:22:25;44.90;;;2.50;;
1703;SDS011;849;48.780;9.216;2023-01-19T10:24:56;45.17;;;2.50;;
1703;SDS011;849;48.780;9.216;2023-01-19T10:27:27;45.00;;;2.40;;
1703;SDS011;849;48.780;9.216;2023-01-19T10:29:55;45.00;;;2.30;;
1703;SDS011;849;48.780;9.216;2023-01-19T10:32:25;45.10;;;2.50;;
1703;SDS011;849;48.780;9.216;2023-01-19T10:34:55;45.07;;;2.40;;
1703;SDS011;849;48.780;9.216;2023-01-19T10:39:53;44.97;;;2.50;;
1703;SDS011;849;48.780;9.216;2023-01-19T10:42:20;45.00;;;2.43;;
1703;SDS011;849;48.780;9.216;2023-01-19T10:44:46;45.10;;;2.40;;
1703;SDS011;849;48.780;9.216;2023-01-19T10:47:14;45.10;;;2.30;;
1703;SDS011;849;48.780;9.216;2023-01-19T10:49:42;45.10;;;2.43;;
1703;SDS011;849;48.780;9.216;2023-01-19T10:54:58;45.10;;;2.50;;
1703;SDS011;849;48.780;9.216;2023-01-19T10:57:40;45.30;;;2.37;;
1703;SDS011;849;48.780;9.216;2023-01-19T11:00:49;45.30;;;2.47;;
1703;SDS011;849;48.780;9.216;2023-01-19T11:02:58;45.47;;;2.63;;
1703;SDS011;849;48.780;9.216;2023-01-19T11:05:25;45.10;;;2.70;;
1703;SDS011;849;48.780;9.216;2023-01-19T11:07:52;45.23;;;2.30;;
1703;SDS011;849;48.780;9.216;2023-01-19T11:10:28;45.20;;;2.47;;
1703;SDS011;849;48.780;9.216;2023-01-19T11:13:03;45.10;;;2.30;;
1703;SDS011;849;48.780;9.216;2023-01-19T11:15:41;45.00;;;2.40;;
1703;SDS011;849;48.780;9.216;2023-01-19T11:18:17;44.97;;;2.50;;
1703;SDS011;849;48.780;9.216;2023-01-19T11:20:50;45.00;;;2.40;;
1703;SDS011;849;48.780;9.216;2023-01-19T11:26:00;45.10;;;2.20;;
1703;SDS011;849;48.780;9.216;2023-01-19T11:33:37;45.00;;;2.40;;
1703;SDS011;849;48.780;9.216;2023-01-19T11:36:17;45.00;;;2.33;;
1703;SDS011;849;48.780;9.216;2023-01-19T11:38:49;45.10;;;2.30;;
1703;SDS011;849;48.780;9.216;2023-01-19T11:41:24;45.00;;;2.20;;
1703;SDS011;849;48.780;9.216;2023-01-19T11:44:08;45.10;;;2.50;;
1703;SDS011;849;48.780;9.216;2023-01-19T11:46:45;45.37;;;2.40;;
1703;SDS011;849;48.780;9.216;2023-01-19T11:49:14;45.07;;;2.40;;
1703;SDS011;849;48.780;9.216;2023-01-19T11:51:52;45.00;;;2.30;;
1703;SDS011;849;48.780;9.216;2023-01-19T11:54:21;45.00;;;2.40;;
1703;SDS011;849;48.780;9.216;2023-01-19T11:56:52;45.10;;;2.37;;
1703;SDS011;849;48.780;9.216;2023-01-19T11:59:22;45.00;;;2.20;;
1703;SDS011;849;48.780;9.216;2023-01-19T12:01:50;45.00;;;2.40;;
1703;SDS011;849;48.780;9.216;2023-01-19T12:04:30;45.10;;;2.33;;
1703;SDS011;849;48.780;9.216;2023-01-19T12:07:01;45.17;;;2.47;;
1703;SDS011;849;48.780;9.216;2023-01-19T12:09:38;45.00;;;2.60;;
1703;SDS011;849;48.780;9.216;2023-01-19T12:12:16;45.03;;;2.43;;
1703;SDS011;849;48.780;9.216;2023-01-19T12:15:00;44.90;;;2.57;;
1703;SDS011;849;48.780;9.216;2023-01-19T12:17:33;45.00;;;2.47;;
1703;SDS011;849;48.780;9.216;2023-01-19T12:22:58;45.10;;;2.33;;
1703;SDS011;849;48.780;9.216;2023-01-19T12:28:33;45.17;;;2.40;;
1703;SDS011;849;48.780;9.216;2023-01-19T12:31:03;45.03;;;2.40;;
1703;SDS011;849;48.780;9.216;2023-01-19T12:33:36;45.03;;;2.47;;
1703;SDS011;849;48.780;9.216;2023-01-19T12:36:08;44.80;;;2.40;;
1703;SDS011;849;48.780;9.216;2023-01-19T12:39:00;45.10;;;2.50;;
1703;SDS011;849;48.780;9.216;2023-01-19T12:41:29;45.10;;;2.43;;
1703;SDS011;849;48.780;9.216;2023-01-19T12:46:35;44.90;;;2.30;;
1703;SDS011;849;48.780;9.216;2023-01-19T12:52:40;45.00;;;2.60;;
1703;SDS011;849;48.780;9.216;2023-01-19T12:54:49;45.10;;;2.50;;
1703;SDS011;849;48.780;9.216;2023-01-19T12:57:21;45.10;;;2.50;;
1703;SDS011;849;48.780;9.216;2023-01-19T12:59:58;45.20;;;2.53;;
1703;SDS011;849;48.780;9.216;2023-01-19T13:21:30;45.17;;;2.40;;
1703;SDS011;849;48.780;9.216;2023-01-19T13:26:34;45.17;;;2.40;;
1703;SDS011;849;48.780;9.216;2023-01-19T13:32:10;45.07;;;2.40;;
1703;SDS011;849;48.780;9.216;2023-01-19T13:34:41;45.13;;;2.40;;
1703;SDS011;849;48.780;9.216;2023-01-19T13:37:22;45.20;;;2.47;;
1703;SDS011;849;48.780;9.216;2023-01-19T13:39:59;45.10;;;2.50;;
1703;SDS011;849;48.780;9.216;2023-01-19T13:42:29;45.00;;;2.50;;
1703;SDS011;849;48.780;9.216;2023-01-19T13:47:51;45.20;;;2.50;;
1703;SDS011;849;48.780;9.216;2023-01-19T13:50:19;45.07;;;2.50;;
1703;SDS011;849;48.780;9.216;2023-01-19T13:52:47;46.17;;;5.40;;
1703;SDS011;849;48.780;9.216;2023-01-19T13:55:15;48.20;;;2.60;;
1703;SDS011;849;48.780;9.216;2023-01-19T13:57:42;45.10;;;2.47;;
1703;SDS011;849;48.780;9.216;2023-01-19T14:05:39;45.17;;;2.47;;
1703;SDS011;849;48.780;9.216;2023-01-19T14:10:41;45.20;;;2.50;;
1703;SDS011;849;48.780;9.216;2023-01-19T14:13:16;45.20;;;2.60;;
1703;SDS011;849;48.780;9.216;2023-01-19T14:15:44;45.10;;;2.37;;
1703;SDS011;849;48.780;9.216;2023-01-19T14:20:52;45.20;;;2.10;;
1703;SDS011;849;48.780;9.216;2023-01-19T14:26:00;45.10;;;2.37;;
1703;SDS011;849;48.780;9.216;2023-01-19T14:33:48;45.40;;;2.60;;
1703;SDS011;849;48.780;9.216;2023-01-19T14:38:44;45.20;;;2.43;;
1703;SDS011;849;48.780;9.216;2023-01-19T14:41:33;45.30;;;2.50;;
1703;SDS011;849;48.780;9.216;2023-01-19T14:44:17;45.30;;;2.50;;
1703;SDS011;849;48.780;9.216;2023-01-19T14:46:48;45.30;;;2.47;;
1703;SDS011;849;48.780;9.216;2023-01-19T14:49:16;45.20;;;2.47;;
1703;SDS011;849;48.780;9.216;2023-01-19T14:51:46;45.17;;;2.40;;
1703;SDS011;849;48.780;9.216;2023-01-19T14:54:17;45.30;;;2.40;;
1703;SDS011;849;48.780;9.216;2023-01-19T14:56:52;45.17;;;2.70;;
1703;SDS011;849;48.780;9.216;2023-01-19T14:59:18;45.20;;;2.37;;
1703;SDS011;849;48.780;9.216;2023-01-19T15:01:43;45.30;;;2.30;;
1703;SDS011;849;48.780;9.216;2023-01-19T15:04:09;45.20;;;2.40;;
1703;SDS011;849;48.780;9.216;2023-01-19T15:06:37;45.20;;;2.37;;
1703;SDS011;849;48.780;9.216;2023-01-19T15:09:05;45.30;;;2.40;;
1703;SDS011;849;48.780;9.216;2023-01-19T15:11:31;45.30;;;2.40;;
1703;SDS011;849;48.780;9.216;2023-01-19T15:13:58;45.20;;;2.40;;
1703;SDS011;849;48.780;9.216;2023-01-19T15:16:25;45.30;;;2.40;;
1703;SDS011;849;48.780;9.216;2023-01-19T15:18:53;45.40;;;2.47;;
1703;SDS011;849;48.780;9.216;2023-01-19T15:21:19;45.17;;;2.23;;
1703;SDS011;849;48.780;9.216;2023-01-19T15:23:50;45.40;;;2.40;;
1703;SDS011;849;48.780;9.216;2023-01-19T15:26:19;45.20;;;2.47;;
1703;SDS011;849;48.780;9.216;2023-01-19T15:28:47;45.10;;;2.40;;
1703;SDS011;849;48.780;9.216;2023-01-19T15:31:22;45.30;;;2.37;;
1703;SDS011;849;48.780;9.216;2023-01-19T15:33:50;45.17;;;2.30;;
1703;SDS011;849;48.780;9.216;2023-01-19T15:36:16;45.80;;;2.73;;
1703;SDS011;849;48.780;9.216;2023-01-19T15:38:44;45.67;;;2.70;;
1703;SDS011;849;48.780;9.216;2023-01-19T15:43:47;46.13;;;2.60;;
1703;SDS011;849;48.780;9.216;2023-01-19T15:46:13;46.30;;;2.70;;
1703;SDS011;849;48.780;9.216;2023-01-19T15:48:40;46.10;;;2.67;;
1703;SDS011;849;48.780;9.216;2023-01-19T15:51:10;46.30;;;2.70;;
1703;SDS011;849;48.780;9.216;2023-01-19T15:53:38;46.30;;;3.00;;
1703;SDS011;849;48.780;9.216;2023-01-19T15:56:04;46.40;;;2.60;;
1703;SDS011;849;48.780;9.216;2023-01-19T15:58:30;46.70;;;2.90;;
1703;SDS011;849;48.780;9.216;2023-01-19T16:00:56;47.20;;;3.00;;
1703;SDS011;849;48.780;9.216;2023-01-19T16:03:23;47.17;;;2.93;;
1703;SDS011;849;48.780;9.216;2023-01-19T16:05:49;47.20;;;2.93;;
1703;SDS011;849;48.780;9.216;2023-01-19T16:08:16;47.60;;;3.00;;
1703;SDS011;849;48.780;9.216;2023-01-19T16:10:41;47.70;;;3.20;;
1703;SDS011;849;48.780;9.216;2023-01-19T16:13:08;47.60;;;3.10;;
1703;SDS011;849;48.780;9.216;2023-01-19T16:15:35;50.42;;;3.47;;
1703;SDS011;849;48.780;9.216;2023-01-19T16:18:02;50.40;;;3.10;;
1703;SDS011;849;48.780;9.216;2023-01-19T16:20:29;47.37;;;3.10;;
1703;SDS011;849;48.780;9.216;2023-01-19T16:22:54;47.50;;;3.30;;
1703;SDS011;849;48.780;9.216;2023-01-19T16:25:20;47.40;;;3.20;;
1703;SDS011;849;48.780;9.216;2023-01-19T16:27:47;47.90;;;3.50;;
1703;SDS011;849;48.780;9.216;2023-01-19T16:30:14;48.00;;;3.40;;
1703;SDS011;849;48.780;9.216;2023-01-19T16:32:43;47.90;;;3.20;;
1703;SDS011;849;48.780;9.216;2023-01-19T16:35:09;47.60;;;3.40;;
1703;SDS011;849;48.780;9.216;2023-01-19T16:37:34;47.60;;;3.30;;
1703;SDS011;849;48.780;9.216;2023-01-19T16:40:00;47.70;;;3.10;;
1703;SDS011;849;48.780;9.216;2023-01-19T16:42:27;47.80;;;3.30;;
1703;SDS011;849;48.780;9.216;2023-01-19T16:44:52;47.90;;;3.23;;
1703;SDS011;849;48.780;9.216;2023-01-19T16:47:18;48.00;;;3.30;;
1703;SDS011;849;48.780;9.216;2023-01-19T16:49:44;47.70;;;3.20;;
1703;SDS011;849;48.780;9.216;2023-01-19T16:52:10;47.90;;;3.40;;
1703;SDS011;849;48.780;9.216;2023-01-19T16:54:35;47.90;;;3.13;;
1703;SDS011;849;48.780;9.216;2023-01-19T16:57:02;48.00;;;3.60;;
1703;SDS011;849;48.780;9.216;2023-01-19T16:59:28;47.80;;;3.17;;
1703;SDS011;849;48.780;9.216;2023-01-19T17:01:53;47.97;;;3.30;;
1703;SDS011;849;48.780;9.216;2023-01-19T17:04:20;48.10;;;3.20;;
1703;SDS011;849;48.780;9.216;2023-01-19T17:06:46;48.00;;;3.13;;